createdAt,value
2023-01-27T00:01:10.851Z,6.10
2023-01-27T00:03:38.954Z,6.00
2023-01-27T00:06:07.456Z,6.00
2023-01-27T00:08:35.575Z,6.00
2023-01-27T00:11:22.328Z,6.00
2023-01-27T00:13:52.085Z,6.00
2023-01-27T00:16:20.283Z,5.90
2023-01-27T00:18:48.529Z,5.90
2023-01-27T00:21:35.279Z,5.90
2023-01-27T00:24:22.009Z,5.90
2023-01-27T00:26:50.257Z,6.00
2023-01-27T00:29:21.290Z,5.90
2023-01-27T00:32:07.997Z,6.00
2023-01-27T00:34:36.087Z,5.90
2023-01-27T00:37:06.035Z,5.90
2023-01-27T00:39:34.984Z,6.00
2023-01-27T00:42:03.508Z,6.00
2023-01-27T00:44:33.172Z,5.90
2023-01-27T00:47:01.412Z,6.00
2023-01-27T00:49:29.588Z,6.00
2023-01-27T00:51:57.637Z,6.10
2023-01-27T00:54:25.838Z,6.10
2023-01-27T00:56:53.968Z,6.00
2023-01-27T00:59:23.405Z,6.00
2023-01-27T01:01:52.994Z,6.10
2023-01-27T01:04:21.193Z,6.20
2023-01-27T01:06:49.202Z,6.20
2023-01-27T01:09:17.383Z,6.20
2023-01-27T01:11:45.401Z,6.20
2023-01-27T01:14:13.564Z,6.10
2023-01-27T01:16:49.657Z,6.10
2023-01-27T01:19:19.166Z,6.10
2023-01-27T01:21:47.186Z,6.10
2023-01-27T01:24:15.179Z,6.10
2023-01-27T01:26:43.151Z,6.20
2023-01-27T01:29:11.278Z,6.20
2023-01-27T01:31:39.411Z,6.20
2023-01-27T01:34:07.672Z,6.20
2023-01-27T01:36:37.269Z,6.10
2023-01-27T01:39:06.199Z,6.20
2023-01-27T01:41:34.139Z,6.20
2023-01-27T01:44:20.287Z,6.20
2023-01-27T01:46:48.998Z,6.30
2023-01-27T01:49:19.096Z,6.30
2023-01-27T01:51:52.655Z,6.30
2023-01-27T01:54:24.458Z,6.20
2023-01-27T01:56:56.295Z,6.20
2023-01-27T01:59:27.447Z,6.20
2023-01-27T02:01:58.372Z,6.30
2023-01-27T02:04:31.730Z,6.30
2023-01-27T02:07:07.108Z,6.30
2023-01-27T02:09:35.761Z,6.20
2023-01-27T02:12:05.044Z,6.20
2023-01-27T02:14:33.893Z,6.20
2023-01-27T02:17:02.726Z,6.00
2023-01-27T02:19:41.827Z,5.80
2023-01-27T02:22:20.591Z,5.80
2023-01-27T02:24:52.634Z,5.90
2023-01-27T02:27:22.653Z,5.90
2023-01-27T02:29:50.713Z,6.00
2023-01-27T02:32:26.010Z,6.00
2023-01-27T02:34:57.149Z,5.90
2023-01-27T02:37:25.797Z,5.90
2023-01-27T02:39:54.773Z,5.90
2023-01-27T02:42:25.413Z,5.80
2023-01-27T02:44:53.514Z,5.70
2023-01-27T02:47:21.542Z,5.70
2023-01-27T02:49:49.815Z,5.80
2023-01-27T02:52:18.329Z,5.70
2023-01-27T02:54:46.933Z,5.70
2023-01-27T02:57:15.108Z,5.70
2023-01-27T02:59:56.438Z,5.60
2023-01-27T03:02:30.665Z,5.50
2023-01-27T03:09:47.800Z,5.60
2023-01-27T03:12:21.974Z,5.50
2023-01-27T03:15:09.737Z,5.40
2023-01-27T03:17:57.871Z,5.40
2023-01-27T03:20:25.959Z,5.40
2023-01-27T03:22:54.007Z,5.40
2023-01-27T03:25:24.681Z,5.50
2023-01-27T03:27:57.587Z,5.60
2023-01-27T03:30:48.898Z,5.50
2023-01-27T03:33:23.498Z,5.40
2023-01-27T03:36:13.270Z,5.40
2023-01-27T03:39:06.703Z,5.40
2023-01-27T03:41:53.598Z,5.40
2023-01-27T03:44:42.149Z,5.40
2023-01-27T03:47:11.436Z,5.40
2023-01-27T03:49:40.935Z,5.30
2023-01-27T03:52:08.942Z,5.30
2023-01-27T03:54:36.874Z,5.30
2023-01-27T03:57:06.669Z,5.40
2023-01-27T03:59:36.290Z,5.50
2023-01-27T04:02:22.550Z,5.50
2023-01-27T04:05:11.573Z,5.40
2023-01-27T04:07:39.901Z,5.40
2023-01-27T04:10:09.176Z,5.40
2023-01-27T04:12:37.173Z,5.40
2023-01-27T04:15:06.462Z,5.40
2023-01-27T04:17:39.186Z,5.50
2023-01-27T04:20:10.614Z,5.50
2023-01-27T04:22:38.876Z,5.60
2023-01-27T04:25:08.805Z,5.60
2023-01-27T04:27:36.926Z,5.50
2023-01-27T04:30:18.705Z,5.50
2023-01-27T04:32:46.820Z,5.60
2023-01-27T04:35:17.426Z,5.60
2023-01-27T04:37:45.680Z,5.70
2023-01-27T04:40:14.419Z,5.70
2023-01-27T04:45:24.042Z,5.70
2023-01-27T04:47:52.181Z,5.70
2023-01-27T04:50:21.700Z,5.70
2023-01-27T04:52:49.713Z,5.70
2023-01-27T04:55:18.546Z,5.60
2023-01-27T04:57:46.437Z,5.60
2023-01-27T05:00:16.673Z,5.70
2023-01-27T05:02:45.554Z,5.70
2023-01-27T05:05:14.009Z,5.70
2023-01-27T05:07:43.630Z,5.60
2023-01-27T05:10:12.647Z,5.60
2023-01-27T05:12:40.598Z,5.70
2023-01-27T05:15:09.599Z,5.60
2023-01-27T05:17:37.844Z,5.60
2023-01-27T05:20:06.688Z,5.60
2023-01-27T05:22:34.805Z,5.60
2023-01-27T05:25:04.730Z,5.60
2023-01-27T05:27:33.007Z,5.70
2023-01-27T05:30:00.958Z,5.60
2023-01-27T05:32:29.026Z,5.60
2023-01-27T05:34:56.884Z,5.60
2023-01-27T05:37:25.165Z,5.60
2023-01-27T05:39:56.785Z,5.60
2023-01-27T05:42:26.272Z,5.60
2023-01-27T05:44:54.311Z,5.60
2023-01-27T05:47:22.496Z,5.70
2023-01-27T05:49:50.691Z,5.70
2023-01-27T05:52:30.008Z,5.70
2023-01-27T05:54:58.157Z,5.60
2023-01-27T05:57:27.795Z,5.70
2023-01-27T05:59:55.863Z,5.70
2023-01-27T06:02:23.816Z,5.70
2023-01-27T06:04:51.982Z,5.60
2023-01-27T06:07:20.080Z,5.60
2023-01-27T06:09:48.195Z,5.60
2023-01-27T06:12:16.052Z,5.60
2023-01-27T06:14:45.573Z,5.60
2023-01-27T06:17:13.722Z,5.60
2023-01-27T06:19:41.707Z,5.60
2023-01-27T06:22:09.721Z,5.70
2023-01-27T06:24:37.727Z,5.60
2023-01-27T06:27:05.587Z,5.60
2023-01-27T06:29:33.576Z,5.60
2023-01-27T06:32:04.906Z,5.60
2023-01-27T06:34:32.955Z,5.50
2023-01-27T06:37:00.996Z,5.50
2023-01-27T06:39:29.135Z,5.50
2023-01-27T06:42:09.821Z,5.50
2023-01-27T06:44:38.315Z,5.50
2023-01-27T06:47:07.929Z,5.60
2023-01-27T06:49:36.331Z,5.50
2023-01-27T06:52:04.467Z,5.50
2023-01-27T06:54:32.725Z,5.50
2023-01-27T06:57:00.925Z,5.40
2023-01-27T06:59:29.036Z,5.50
2023-01-27T07:01:57.028Z,5.50
2023-01-27T07:04:26.644Z,5.60
2023-01-27T07:06:54.659Z,5.60
2023-01-27T07:09:22.796Z,5.60
2023-01-27T07:11:52.151Z,5.70
2023-01-27T07:14:20.388Z,5.70
2023-01-27T07:16:48.588Z,5.70
2023-01-27T07:19:17.114Z,5.80
2023-01-27T07:21:46.586Z,5.80
2023-01-27T07:24:14.844Z,5.80
2023-01-27T07:26:44.770Z,5.90
2023-01-27T07:29:13.200Z,5.90
2023-01-27T07:31:41.365Z,5.90
2023-01-27T07:34:09.521Z,5.90
2023-01-27T07:36:37.615Z,5.90
2023-01-27T07:39:07.461Z,6.00
2023-01-27T07:41:35.395Z,6.00
2023-01-27T07:44:03.504Z,6.00
2023-01-27T07:46:32.011Z,6.00
2023-01-27T07:49:00.168Z,6.10
2023-01-27T07:51:28.212Z,6.20
2023-01-27T07:53:56.173Z,6.20
2023-01-27T07:56:25.731Z,6.20
2023-01-27T07:58:55.526Z,6.20
2023-01-27T08:01:23.543Z,6.20
2023-01-27T08:03:51.810Z,6.30
2023-01-27T08:06:19.812Z,6.30
2023-01-27T08:08:48.803Z,6.30
2023-01-27T08:11:16.751Z,6.40
2023-01-27T08:13:46.357Z,6.40
2023-01-27T08:16:16.144Z,6.40
2023-01-27T08:18:44.209Z,6.40
2023-01-27T08:21:13.136Z,6.50
2023-01-27T08:23:41.033Z,6.60
2023-01-27T08:26:09.141Z,6.60
2023-01-27T08:28:38.717Z,6.60
2023-01-27T08:31:09.783Z,6.60
2023-01-27T08:33:39.175Z,6.60
2023-01-27T08:36:10.882Z,6.70
2023-01-27T08:38:39.226Z,6.80
2023-01-27T08:41:08.282Z,6.90
2023-01-27T08:43:36.407Z,6.90
2023-01-27T08:46:04.866Z,7.00
2023-01-27T08:48:35.004Z,7.00
2023-01-27T08:51:03.996Z,7.00
2023-01-27T08:53:32.133Z,7.10
2023-01-27T08:56:04.375Z,7.10
2023-01-27T08:58:33.635Z,7.20
2023-01-27T09:01:02.575Z,7.20
2023-01-27T09:03:30.988Z,7.30
2023-01-27T09:06:00.763Z,7.30
2023-01-27T09:08:29.817Z,7.30
2023-01-27T09:10:58.234Z,7.30
2023-01-27T09:13:26.378Z,7.40
2023-01-27T09:15:54.597Z,7.40
2023-01-27T09:18:22.727Z,7.50
2023-01-27T09:20:50.590Z,7.60
2023-01-27T09:23:20.081Z,7.70
2023-01-27T09:25:48.214Z,7.80
2023-01-27T09:28:18.814Z,7.80
2023-01-27T09:30:47.271Z,7.80
2023-01-27T09:33:15.908Z,7.90
2023-01-27T09:35:46.932Z,8.00
2023-01-27T09:38:19.069Z,8.00
2023-01-27T09:41:12.036Z,8.00
2023-01-27T09:44:11.530Z,8.10
2023-01-27T09:47:06.803Z,8.10
2023-01-27T09:49:56.989Z,8.20
2023-01-27T09:52:51.055Z,8.20
2023-01-27T09:55:25.885Z,8.30
2023-01-27T09:58:06.426Z,8.30
2023-01-27T10:00:48.307Z,8.30
2023-01-27T10:03:33.823Z,8.40
2023-01-27T10:06:26.420Z,8.40
2023-01-27T10:09:14.522Z,8.40
2023-01-27T10:11:51.031Z,8.50
2023-01-27T10:14:34.731Z,8.50
2023-01-27T10:17:21.546Z,8.50
2023-01-27T10:20:01.664Z,8.60
2023-01-27T10:22:38.725Z,8.60
2023-01-27T10:25:21.531Z,8.70
2023-01-27T10:27:54.835Z,8.80
2023-01-27T10:30:32.631Z,8.80
2023-01-27T10:33:13.198Z,8.80
2023-01-27T10:35:48.739Z,8.80
2023-01-27T10:38:28.532Z,8.90
2023-01-27T10:41:06.394Z,9.00
2023-01-27T10:43:44.787Z,9.10
2023-01-27T10:46:23.423Z,9.20
2023-01-27T10:48:55.360Z,9.30
2023-01-27T10:51:28.775Z,9.30
2023-01-27T10:54:05.156Z,9.30
2023-01-27T10:56:40.381Z,9.30
2023-01-27T10:59:17.209Z,9.30
2023-01-27T11:01:50.418Z,9.40
2023-01-27T11:04:28.547Z,9.30
2023-01-27T11:06:58.307Z,9.40
2023-01-27T11:09:31.205Z,9.40
2023-01-27T11:12:03.888Z,9.40
2023-01-27T11:14:38.949Z,9.50
2023-01-27T11:17:19.092Z,9.50
2023-01-27T11:19:56.352Z,9.60
2023-01-27T11:22:28.908Z,9.60
2023-01-27T11:25:05.436Z,9.60
2023-01-27T11:27:40.047Z,9.60
2023-01-27T11:30:17.594Z,9.70
2023-01-27T11:32:55.015Z,9.80
2023-01-27T11:35:24.097Z,9.80
2023-01-27T11:37:58.316Z,9.80
2023-01-27T11:40:34.351Z,9.90
2023-01-27T11:43:03.824Z,9.90
2023-01-27T11:45:36.018Z,10.00
2023-01-27T11:48:10.119Z,10.00
2023-01-27T11:50:38.575Z,9.90
2023-01-27T11:53:14.819Z,10.00
2023-01-27T11:55:46.509Z,10.10
2023-01-27T11:58:21.699Z,10.20
2023-01-27T12:00:56.679Z,10.20
2023-01-27T12:03:44.684Z,10.20
2023-01-27T12:06:16.229Z,10.30
2023-01-27T12:08:46.475Z,10.30
2023-01-27T12:11:21.985Z,10.30
2023-01-27T12:13:52.614Z,10.40
2023-01-27T12:16:21.430Z,10.30
2023-01-27T12:18:55.880Z,10.40
2023-01-27T12:21:41.597Z,10.40
2023-01-27T12:24:22.551Z,10.50
2023-01-27T12:26:53.672Z,10.60
2023-01-27T12:29:27.346Z,10.50
2023-01-27T12:31:58.792Z,10.50
2023-01-27T12:34:33.342Z,10.50
2023-01-27T12:37:02.533Z,10.40
2023-01-27T12:39:42.228Z,10.40
2023-01-27T12:42:37.831Z,10.50
2023-01-27T12:45:29.638Z,10.50
2023-01-27T12:48:00.669Z,10.40
2023-01-27T12:50:31.670Z,10.50
2023-01-27T12:53:11.313Z,10.50
2023-01-27T12:55:42.222Z,10.70
2023-01-27T12:58:28.979Z,10.70
2023-01-27T13:00:58.084Z,10.60
2023-01-27T13:03:31.358Z,10.70
2023-01-27T13:06:01.492Z,10.60
2023-01-27T13:08:33.314Z,10.60
2023-01-27T13:11:03.907Z,10.60
2023-01-27T13:13:32.194Z,10.70
2023-01-27T13:16:07.273Z,10.70
2023-01-27T13:18:38.593Z,10.70
2023-01-27T13:21:16.426Z,10.70
2023-01-27T13:23:46.686Z,10.70
2023-01-27T13:26:19.097Z,10.70
2023-01-27T13:28:54.471Z,10.60
2023-01-27T13:31:36.307Z,10.60
2023-01-27T13:34:14.051Z,10.70
2023-01-27T13:36:48.039Z,10.70
2023-01-27T13:39:21.881Z,10.70
2023-01-27T13:41:55.886Z,10.80
2023-01-27T13:44:32.831Z,11.00
2023-01-27T13:47:04.721Z,10.90
2023-01-27T13:49:37.739Z,10.80
2023-01-27T13:52:07.859Z,10.70
2023-01-27T13:54:35.826Z,10.70
2023-01-27T13:57:16.503Z,10.70
2023-01-27T13:59:54.989Z,10.70
2023-01-27T14:02:43.084Z,10.60
2023-01-27T14:05:43.605Z,10.60
2023-01-27T14:08:45.510Z,10.50
2023-01-27T14:11:23.348Z,10.40
2023-01-27T14:14:03.206Z,10.10
2023-01-27T14:16:39.168Z,9.90
2023-01-27T14:19:18.917Z,9.80
2023-01-27T14:21:54.198Z,9.80
2023-01-27T14:24:35.222Z,9.70
2023-01-27T14:27:09.763Z,9.60
2023-01-27T14:29:44.705Z,9.50
2023-01-27T14:32:23.237Z,9.60
2023-01-27T14:35:05.920Z,9.50
2023-01-27T14:37:41.877Z,9.40
2023-01-27T14:40:20.863Z,9.40
2023-01-27T14:43:11.487Z,9.40
2023-01-27T14:45:44.169Z,9.30
2023-01-27T14:48:23.414Z,9.30
2023-01-27T14:51:08.475Z,9.30
2023-01-27T14:53:50.142Z,9.10
2023-01-27T14:56:29.199Z,9.10
2023-01-27T14:59:06.763Z,9.10
2023-01-27T15:01:43.180Z,9.10
2023-01-27T15:04:45.257Z,9.00
2023-01-27T15:07:19.751Z,9.10
2023-01-27T15:10:04.037Z,9.10
2023-01-27T15:13:16.884Z,9.00
2023-01-27T15:16:06.378Z,9.00
2023-01-27T15:19:07.842Z,9.00
2023-01-27T15:21:49.847Z,8.90
2023-01-27T15:24:52.332Z,8.90
2023-01-27T15:27:21.382Z,8.90
2023-01-27T15:29:52.683Z,8.80
2023-01-27T15:32:29.386Z,8.80
2023-01-27T15:35:31.563Z,8.90
2023-01-27T15:38:02.486Z,8.80
2023-01-27T15:40:51.618Z,8.80
2023-01-27T15:43:23.675Z,9.20
2023-01-27T15:45:56.475Z,10.10
2023-01-27T15:48:28.859Z,10.60
2023-01-27T15:51:01.728Z,10.80
2023-01-27T15:53:33.794Z,10.90
2023-01-27T15:56:02.737Z,10.90
2023-01-27T15:58:36.284Z,11.00
2023-01-27T16:01:09.065Z,10.90
2023-01-27T16:03:44.174Z,11.00
2023-01-27T16:06:16.257Z,10.60
2023-01-27T16:08:49.728Z,9.70
2023-01-27T16:11:41.385Z,9.10
2023-01-27T16:14:50.609Z,8.80
2023-01-27T16:17:25.928Z,8.60
2023-01-27T16:20:05.607Z,8.50
2023-01-27T16:22:39.758Z,8.40
2023-01-27T16:25:23.067Z,8.40
2023-01-27T16:28:01.389Z,8.30
2023-01-27T16:30:36.171Z,8.20
2023-01-27T16:33:08.408Z,8.20
2023-01-27T16:35:44.691Z,8.10
2023-01-27T16:38:24.677Z,8.10
2023-01-27T16:40:56.380Z,8.10
2023-01-27T16:43:30.593Z,8.10
2023-01-27T16:46:02.849Z,8.00
2023-01-27T16:48:38.535Z,8.00
2023-01-27T16:51:13.266Z,7.90
2023-01-27T16:53:45.593Z,7.90
2023-01-27T16:56:21.974Z,7.90
2023-01-27T16:58:51.426Z,7.90
2023-01-27T17:01:25.680Z,7.90
2023-01-27T17:04:04.825Z,7.80
2023-01-27T17:06:42.213Z,7.80
2023-01-27T17:09:21.521Z,7.80
2023-01-27T17:11:50.035Z,7.90
2023-01-27T17:14:30.272Z,7.90
2023-01-27T17:17:01.668Z,7.90
2023-01-27T17:19:33.305Z,7.90
2023-01-27T17:22:03.745Z,7.90
2023-01-27T17:24:33.740Z,7.90
2023-01-27T17:27:04.540Z,7.90
2023-01-27T17:29:36.021Z,7.90
2023-01-27T17:32:17.285Z,7.90
2023-01-27T17:34:47.482Z,7.90
2023-01-27T17:37:17.145Z,8.00
2023-01-27T17:39:45.948Z,7.90
2023-01-27T17:42:19.222Z,7.90
2023-01-27T17:44:49.761Z,7.80
2023-01-27T17:47:20.152Z,7.90
2023-01-27T17:49:51.460Z,7.80
2023-01-27T17:52:22.491Z,7.80
2023-01-27T17:54:52.601Z,7.80
2023-01-27T17:57:23.329Z,7.80
2023-01-27T18:00:00.287Z,7.80
2023-01-27T18:02:31.411Z,7.80
2023-01-27T18:05:04.767Z,7.70
2023-01-27T18:07:33.841Z,7.70
2023-01-27T18:10:02.016Z,7.70
2023-01-27T18:12:33.633Z,7.60
2023-01-27T18:15:38.202Z,7.60
2023-01-27T18:18:15.683Z,7.60
2023-01-27T18:20:46.148Z,7.70
2023-01-27T18:23:17.938Z,7.70
2023-01-27T18:25:51.346Z,7.70
2023-01-27T18:28:20.450Z,7.70
2023-01-27T18:30:50.333Z,7.70
2023-01-27T18:33:19.200Z,7.80
2023-01-27T18:35:58.111Z,7.80
2023-01-27T18:38:27.911Z,7.70
2023-01-27T18:40:57.394Z,7.70
2023-01-27T18:43:25.721Z,7.70
2023-01-27T18:45:54.272Z,7.70
2023-01-27T18:48:22.837Z,7.60
2023-01-27T18:50:52.530Z,7.60
2023-01-27T18:53:21.646Z,7.60
2023-01-27T18:55:52.042Z,7.60
2023-01-27T18:58:21.526Z,7.60
2023-01-27T19:00:52.817Z,7.60
2023-01-27T19:03:24.109Z,7.60
2023-01-27T19:05:54.956Z,7.50
2023-01-27T19:08:25.051Z,7.50
2023-01-27T19:10:53.616Z,7.60
2023-01-27T19:13:21.797Z,7.60
2023-01-27T19:15:52.061Z,7.60
2023-01-27T19:18:26.083Z,7.60
2023-01-27T19:20:56.214Z,7.60
2023-01-27T19:23:24.854Z,7.60
2023-01-27T19:25:55.181Z,7.60
2023-01-27T19:28:28.602Z,7.60
2023-01-27T19:30:57.471Z,7.60
2023-01-27T19:33:27.081Z,7.50
2023-01-27T19:36:00.984Z,7.50
2023-01-27T19:38:30.698Z,7.50
2023-01-27T19:40:58.894Z,7.50
2023-01-27T19:43:27.010Z,7.50
2023-01-27T19:45:55.644Z,7.60
2023-01-27T19:48:24.984Z,7.60
2023-01-27T19:50:53.327Z,7.60
2023-01-27T19:53:22.901Z,7.60
2023-01-27T19:55:51.775Z,7.70
2023-01-27T19:58:22.703Z,7.60
2023-01-27T20:00:51.319Z,7.60
2023-01-27T20:03:19.757Z,7.70
2023-01-27T20:05:47.904Z,7.60
2023-01-27T20:08:18.669Z,7.60
2023-01-27T20:10:48.600Z,7.60
2023-01-27T20:13:18.779Z,7.70
2023-01-27T20:15:47.495Z,7.70
2023-01-27T20:18:17.288Z,7.60
2023-01-27T20:20:46.042Z,7.60
2023-01-27T20:23:15.206Z,7.60
2023-01-27T20:25:44.167Z,7.70
2023-01-27T20:28:13.974Z,7.70
2023-01-27T20:30:43.355Z,7.60
2023-01-27T20:33:13.910Z,7.60
2023-01-27T20:35:42.761Z,7.60
2023-01-27T20:38:10.969Z,7.60
2023-01-27T20:40:39.161Z,7.60
2023-01-27T20:43:07.930Z,7.60
2023-01-27T20:45:39.149Z,7.60
2023-01-27T20:48:07.567Z,7.60
2023-01-27T20:50:35.712Z,7.50
2023-01-27T20:53:04.887Z,7.60
2023-01-27T20:55:33.546Z,7.50
2023-01-27T20:58:02.401Z,7.50
2023-01-27T21:00:30.540Z,7.60
2023-01-27T21:03:02.755Z,7.60
2023-01-27T21:05:31.751Z,7.60
2023-01-27T21:07:59.682Z,7.60
2023-01-27T21:10:27.890Z,7.60
2023-01-27T21:12:55.943Z,7.60
2023-01-27T21:15:27.330Z,7.60
2023-01-27T21:17:55.632Z,7.60
2023-01-27T21:20:25.396Z,7.60
2023-01-27T21:22:53.594Z,7.60
2023-01-27T21:25:22.032Z,7.60
2023-01-27T21:27:50.383Z,7.50
2023-01-27T21:30:18.898Z,7.50
2023-01-27T21:32:47.005Z,7.50
2023-01-27T21:35:15.330Z,7.50
2023-01-27T21:37:45.085Z,7.50
2023-01-27T21:40:13.847Z,7.50
2023-01-27T21:43:00.558Z,7.50
2023-01-27T21:45:29.098Z,7.50
2023-01-27T21:47:57.454Z,7.50
2023-01-27T21:50:25.615Z,7.40
2023-01-27T21:52:55.198Z,7.50
2023-01-27T21:55:25.068Z,7.50
2023-01-27T21:57:55.154Z,7.50
2023-01-27T22:00:25.121Z,7.40
2023-01-27T22:02:54.220Z,7.50
2023-01-27T22:05:22.721Z,7.40
2023-01-27T22:07:52.171Z,7.40
2023-01-27T22:10:23.819Z,7.40
2023-01-27T22:12:52.132Z,7.40
2023-01-27T22:15:20.726Z,7.40
2023-01-27T22:17:49.184Z,7.40
2023-01-27T22:20:18.271Z,7.30
2023-01-27T22:22:46.581Z,7.30
2023-01-27T22:25:16.232Z,7.30
2023-01-27T22:27:46.585Z,7.30
2023-01-27T22:30:16.365Z,7.30
2023-01-27T22:32:45.254Z,7.30
2023-01-27T22:35:16.029Z,7.20
2023-01-27T22:37:44.985Z,7.30
2023-01-27T22:40:14.160Z,7.20
2023-01-27T22:42:42.283Z,7.20
2023-01-27T22:45:12.790Z,7.20
2023-01-27T22:47:41.184Z,7.20
2023-01-27T22:50:10.546Z,7.20
2023-01-27T22:52:39.455Z,7.20
2023-01-27T22:55:09.613Z,7.20
2023-01-27T22:57:37.558Z,7.20
2023-01-27T23:00:07.471Z,7.20
2023-01-27T23:02:37.158Z,7.20
2023-01-27T23:05:05.423Z,7.20
2023-01-27T23:07:33.501Z,7.30
2023-01-27T23:10:01.318Z,7.30
2023-01-27T23:12:29.246Z,7.20
2023-01-27T23:14:59.661Z,7.20
2023-01-27T23:17:27.695Z,7.20
2023-01-27T23:19:57.351Z,7.20
2023-01-27T23:22:25.245Z,7.30
2023-01-27T23:24:53.299Z,7.30
2023-01-27T23:27:21.287Z,7.30
2023-01-27T23:29:49.279Z,7.30
2023-01-27T23:32:17.097Z,7.20
2023-01-27T23:34:45.042Z,7.20
2023-01-27T23:37:14.669Z,7.30
2023-01-27T23:39:46.090Z,7.20
2023-01-27T23:42:14.140Z,7.20
2023-01-27T23:44:42.031Z,7.20
2023-01-27T23:47:10.609Z,7.20
2023-01-27T23:49:38.472Z,7.30
2023-01-27T23:52:06.817Z,7.30
2023-01-27T23:54:36.309Z,7.30
2023-01-27T23:57:04.202Z,7.20
2023-01-27T23:59:32.259Z,7.20
